sensor_id;sensor_type;location;lat;lon;timestamp;P1;durP1;ratioP1;P2;durP2;ratioP2
47429;SDS011;33181;49.246;7.372;2023-05-18T00:00:22;7.93;;;4.20;;
47429;SDS011;33181;49.246;7.372;2023-05-18T00:02:48;7.83;;;4.40;;
47429;SDS011;33181;49.246;7.372;2023-05-18T00:05:14;9.17;;;4.30;;
47429;SDS011;33181;49.246;7.372;2023-05-18T00:07:44;10.03;;;4.20;;
47429;SDS011;33181;49.246;7.372;2023-05-18T00:10:10;6.83;;;3.70;;
47429;SDS011;33181;49.246;7.372;2023-05-18T00:12:36;11.80;;;4.50;;
47429;SDS011;33181;49.246;7.372;2023-05-18T00:15:02;8.40;;;4.50;;
47429;SDS011;33181;49.246;7.372;2023-05-18T00:17:28;11.23;;;4.40;;
47429;SDS011;33181;49.246;7.372;2023-05-18T00:19:55;9.37;;;4.50;;
47429;SDS011;33181;49.246;7.372;2023-05-18T00:22:22;8.17;;;4.67;;
47429;SDS011;33181;49.246;7.372;2023-05-18T00:24:50;10.67;;;4.40;;
47429;SDS011;33181;49.246;7.372;2023-05-18T00:27:16;13.53;;;4.23;;
47429;SDS011;33181;49.246;7.372;2023-05-18T00:29:42;9.47;;;4.47;;
47429;SDS011;33181;49.246;7.372;2023-05-18T00:32:08;11.30;;;4.60;;
47429;SDS011;33181;49.246;7.372;2023-05-18T00:34:34;6.27;;;3.80;;
47429;SDS011;33181;49.246;7.372;2023-05-18T00:37:00;7.40;;;4.50;;
47429;SDS011;33181;49.246;7.372;2023-05-18T00:39:25;6.67;;;4.17;;
47429;SDS011;33181;49.246;7.372;2023-05-18T00:41:51;14.17;;;4.73;;
47429;SDS011;33181;49.246;7.372;2023-05-18T00:44:17;11.67;;;4.50;;
47429;SDS011;33181;49.246;7.372;2023-05-18T00:46:43;11.10;;;4.10;;
47429;SDS011;33181;49.246;7.372;2023-05-18T00:49:09;9.87;;;4.23;;
47429;SDS011;33181;49.246;7.372;2023-05-18T00:51:35;14.07;;;4.77;;
47429;SDS011;33181;49.246;7.372;2023-05-18T00:54:04;7.63;;;4.30;;
47429;SDS011;33181;49.246;7.372;2023-05-18T00:56:31;14.40;;;4.47;;
47429;SDS011;33181;49.246;7.372;2023-05-18T00:58:58;11.90;;;4.40;;
47429;SDS011;33181;49.246;7.372;2023-05-18T01:01:28;5.83;;;3.63;;
47429;SDS011;33181;49.246;7.372;2023-05-18T01:03:58;8.83;;;4.53;;
47429;SDS011;33181;49.246;7.372;2023-05-18T01:06:26;7.07;;;4.60;;
47429;SDS011;33181;49.246;7.372;2023-05-18T01:08:56;8.27;;;4.83;;
47429;SDS011;33181;49.246;7.372;2023-05-18T01:28:26;7.60;;;4.50;;
47429;SDS011;33181;49.246;7.372;2023-05-18T01:30:56;8.33;;;4.77;;
47429;SDS011;33181;49.246;7.372;2023-05-18T01:33:23;8.03;;;4.67;;
47429;SDS011;33181;49.246;7.372;2023-05-18T01:35:49;8.43;;;4.70;;
47429;SDS011;33181;49.246;7.372;2023-05-18T01:38:20;5.43;;;4.03;;
47429;SDS011;33181;49.246;7.372;2023-05-18T01:43:36;6.47;;;4.30;;
47429;SDS011;33181;49.246;7.372;2023-05-18T01:46:33;8.50;;;4.70;;
47429;SDS011;33181;49.246;7.372;2023-05-18T01:49:16;9.97;;;4.50;;
47429;SDS011;33181;49.246;7.372;2023-05-18T01:52:10;8.40;;;4.80;;
47429;SDS011;33181;49.246;7.372;2023-05-18T01:54:46;6.73;;;4.73;;
47429;SDS011;33181;49.246;7.372;2023-05-18T01:57:17;6.70;;;4.50;;
47429;SDS011;33181;49.246;7.372;2023-05-18T01:59:48;8.13;;;4.50;;
47429;SDS011;33181;49.246;7.372;2023-05-18T02:02:15;6.83;;;4.40;;
47429;SDS011;33181;49.246;7.372;2023-05-18T02:04:41;6.40;;;4.23;;
47429;SDS011;33181;49.246;7.372;2023-05-18T02:07:07;11.73;;;5.10;;
47429;SDS011;33181;49.246;7.372;2023-05-18T02:09:33;8.10;;;4.60;;
47429;SDS011;33181;49.246;7.372;2023-05-18T02:11:59;7.50;;;4.30;;
47429;SDS011;33181;49.246;7.372;2023-05-18T02:14:25;10.93;;;5.37;;
47429;SDS011;33181;49.246;7.372;2023-05-18T02:16:50;6.97;;;4.50;;
47429;SDS011;33181;49.246;7.372;2023-05-18T02:19:17;10.67;;;5.10;;
47429;SDS011;33181;49.246;7.372;2023-05-18T02:21:44;10.83;;;5.00;;
47429;SDS011;33181;49.246;7.372;2023-05-18T02:24:10;9.50;;;4.70;;
47429;SDS011;33181;49.246;7.372;2023-05-18T02:26:36;6.93;;;4.67;;
47429;SDS011;33181;49.246;7.372;2023-05-18T02:29:06;9.97;;;4.57;;
47429;SDS011;33181;49.246;7.372;2023-05-18T02:31:33;10.90;;;4.67;;
47429;SDS011;33181;49.246;7.372;2023-05-18T02:34:00;9.00;;;4.93;;
47429;SDS011;33181;49.246;7.372;2023-05-18T02:36:25;6.20;;;4.40;;
47429;SDS011;33181;49.246;7.372;2023-05-18T02:38:51;8.10;;;4.60;;
47429;SDS011;33181;49.246;7.372;2023-05-18T02:41:17;11.70;;;4.60;;
47429;SDS011;33181;49.246;7.372;2023-05-18T02:43:43;10.13;;;5.20;;
47429;SDS011;33181;49.246;7.372;2023-05-18T02:46:08;7.70;;;5.10;;
47429;SDS011;33181;49.246;7.372;2023-05-18T02:48:34;9.83;;;5.60;;
47429;SDS011;33181;49.246;7.372;2023-05-18T02:51:00;5.47;;;4.30;;
47429;SDS011;33181;49.246;7.372;2023-05-18T02:53:28;9.80;;;4.70;;
47429;SDS011;33181;49.246;7.372;2023-05-18T02:55:54;11.03;;;4.87;;
47429;SDS011;33181;49.246;7.372;2023-05-18T02:58:23;6.30;;;4.43;;
47429;SDS011;33181;49.246;7.372;2023-05-18T03:00:49;6.97;;;4.87;;
47429;SDS011;33181;49.246;7.372;2023-05-18T03:03:18;7.30;;;4.60;;
47429;SDS011;33181;49.246;7.372;2023-05-18T03:05:43;9.80;;;5.10;;
47429;SDS011;33181;49.246;7.372;2023-05-18T03:08:09;13.00;;;5.47;;
47429;SDS011;33181;49.246;7.372;2023-05-18T03:10:36;8.13;;;4.70;;
47429;SDS011;33181;49.246;7.372;2023-05-18T03:13:02;8.20;;;4.90;;
47429;SDS011;33181;49.246;7.372;2023-05-18T03:15:28;10.60;;;5.30;;
47429;SDS011;33181;49.246;7.372;2023-05-18T03:17:56;7.93;;;5.00;;
47429;SDS011;33181;49.246;7.372;2023-05-18T03:20:24;11.67;;;5.00;;
47429;SDS011;33181;49.246;7.372;2023-05-18T03:22:50;9.97;;;4.80;;
47429;SDS011;33181;49.246;7.372;2023-05-18T03:25:16;10.30;;;4.90;;
47429;SDS011;33181;49.246;7.372;2023-05-18T03:27:42;7.93;;;4.80;;
47429;SDS011;33181;49.246;7.372;2023-05-18T03:30:08;11.00;;;5.20;;
47429;SDS011;33181;49.246;7.372;2023-05-18T03:32:34;8.30;;;5.00;;
47429;SDS011;33181;49.246;7.372;2023-05-18T03:35:01;8.10;;;5.13;;
47429;SDS011;33181;49.246;7.372;2023-05-18T03:37:29;7.00;;;4.60;;
47429;SDS011;33181;49.246;7.372;2023-05-18T03:39:57;7.60;;;4.60;;
47429;SDS011;33181;49.246;7.372;2023-05-18T03:42:31;7.43;;;4.80;;
47429;SDS011;33181;49.246;7.372;2023-05-18T03:44:57;8.70;;;4.80;;
47429;SDS011;33181;49.246;7.372;2023-05-18T03:47:23;9.23;;;4.90;;
47429;SDS011;33181;49.246;7.372;2023-05-18T03:49:48;8.77;;;5.20;;
47429;SDS011;33181;49.246;7.372;2023-05-18T03:52:14;8.03;;;5.13;;
47429;SDS011;33181;49.246;7.372;2023-05-18T03:54:46;10.30;;;5.03;;
47429;SDS011;33181;49.246;7.372;2023-05-18T03:57:14;8.93;;;5.07;;
47429;SDS011;33181;49.246;7.372;2023-05-18T03:59:45;9.43;;;4.77;;
47429;SDS011;33181;49.246;7.372;2023-05-18T04:02:11;6.37;;;5.10;;
47429;SDS011;33181;49.246;7.372;2023-05-18T04:04:37;7.60;;;4.83;;
47429;SDS011;33181;49.246;7.372;2023-05-18T04:07:10;7.40;;;5.20;;
47429;SDS011;33181;49.246;7.372;2023-05-18T04:09:40;9.23;;;5.10;;
47429;SDS011;33181;49.246;7.372;2023-05-18T04:12:09;7.30;;;4.80;;
47429;SDS011;33181;49.246;7.372;2023-05-18T04:14:35;8.57;;;5.40;;
47429;SDS011;33181;49.246;7.372;2023-05-18T04:17:01;8.47;;;5.70;;
47429;SDS011;33181;49.246;7.372;2023-05-18T04:19:33;9.00;;;4.80;;
47429;SDS011;33181;49.246;7.372;2023-05-18T04:22:00;9.30;;;5.40;;
47429;SDS011;33181;49.246;7.372;2023-05-18T04:24:30;8.87;;;4.90;;
47429;SDS011;33181;49.246;7.372;2023-05-18T04:26:58;10.93;;;5.00;;
47429;SDS011;33181;49.246;7.372;2023-05-18T04:29:25;9.13;;;4.57;;
47429;SDS011;33181;49.246;7.372;2023-05-18T04:31:52;7.37;;;4.50;;
47429;SDS011;33181;49.246;7.372;2023-05-18T04:34:24;10.57;;;4.73;;
47429;SDS011;33181;49.246;7.372;2023-05-18T04:36:52;9.00;;;4.70;;
47429;SDS011;33181;49.246;7.372;2023-05-18T04:39:19;5.90;;;3.63;;
47429;SDS011;33181;49.246;7.372;2023-05-18T04:41:47;11.03;;;4.93;;
47429;SDS011;33181;49.246;7.372;2023-05-18T04:44:28;7.90;;;4.30;;
47429;SDS011;33181;49.246;7.372;2023-05-18T04:46:59;7.83;;;4.20;;
47429;SDS011;33181;49.246;7.372;2023-05-18T04:49:25;6.33;;;3.90;;
47429;SDS011;33181;49.246;7.372;2023-05-18T04:51:52;6.07;;;4.00;;
47429;SDS011;33181;49.246;7.372;2023-05-18T04:54:23;6.87;;;3.53;;
47429;SDS011;33181;49.246;7.372;2023-05-18T04:56:50;6.67;;;4.33;;
47429;SDS011;33181;49.246;7.372;2023-05-18T04:59:17;6.50;;;4.50;;
47429;SDS011;33181;49.246;7.372;2023-05-18T05:01:43;8.07;;;3.80;;
47429;SDS011;33181;49.246;7.372;2023-05-18T05:04:10;8.47;;;4.63;;
47429;SDS011;33181;49.246;7.372;2023-05-18T05:06:36;5.93;;;4.07;;
47429;SDS011;33181;49.246;7.372;2023-05-18T05:09:02;4.93;;;3.70;;
47429;SDS011;33181;49.246;7.372;2023-05-18T05:11:28;5.80;;;4.10;;
47429;SDS011;33181;49.246;7.372;2023-05-18T05:13:54;10.10;;;4.53;;
47429;SDS011;33181;49.246;7.372;2023-05-18T05:16:20;7.50;;;3.80;;
47429;SDS011;33181;49.246;7.372;2023-05-18T05:18:46;7.37;;;3.90;;
47429;SDS011;33181;49.246;7.372;2023-05-18T05:21:12;6.23;;;4.20;;
47429;SDS011;33181;49.246;7.372;2023-05-18T05:23:38;7.70;;;3.80;;
47429;SDS011;33181;49.246;7.372;2023-05-18T05:26:05;7.03;;;3.80;;
47429;SDS011;33181;49.246;7.372;2023-05-18T05:28:31;7.47;;;4.00;;
47429;SDS011;33181;49.246;7.372;2023-05-18T05:30:57;9.20;;;4.30;;
47429;SDS011;33181;49.246;7.372;2023-05-18T05:33:24;6.23;;;4.20;;
47429;SDS011;33181;49.246;7.372;2023-05-18T05:35:50;12.40;;;5.03;;
47429;SDS011;33181;49.246;7.372;2023-05-18T05:38:16;9.60;;;4.13;;
47429;SDS011;33181;49.246;7.372;2023-05-18T05:40:42;7.47;;;4.50;;
47429;SDS011;33181;49.246;7.372;2023-05-18T05:43:08;5.50;;;3.97;;
47429;SDS011;33181;49.246;7.372;2023-05-18T05:45:34;11.77;;;4.17;;
47429;SDS011;33181;49.246;7.372;2023-05-18T05:48:00;6.90;;;3.83;;
47429;SDS011;33181;49.246;7.372;2023-05-18T05:50:26;6.73;;;3.77;;
47429;SDS011;33181;49.246;7.372;2023-05-18T05:52:52;8.97;;;4.43;;
47429;SDS011;33181;49.246;7.372;2023-05-18T05:55:19;10.27;;;4.10;;
47429;SDS011;33181;49.246;7.372;2023-05-18T05:57:45;10.57;;;4.20;;
47429;SDS011;33181;49.246;7.372;2023-05-18T06:00:11;8.67;;;4.40;;
47429;SDS011;33181;49.246;7.372;2023-05-18T06:02:38;9.17;;;4.23;;
47429;SDS011;33181;49.246;7.372;2023-05-18T06:05:07;6.90;;;4.07;;
47429;SDS011;33181;49.246;7.372;2023-05-18T06:07:34;7.77;;;4.10;;
47429;SDS011;33181;49.246;7.372;2023-05-18T06:10:00;9.60;;;4.57;;
47429;SDS011;33181;49.246;7.372;2023-05-18T06:12:26;7.47;;;4.47;;
47429;SDS011;33181;49.246;7.372;2023-05-18T06:14:52;9.57;;;4.07;;
47429;SDS011;33181;49.246;7.372;2023-05-18T06:17:25;9.73;;;4.33;;
47429;SDS011;33181;49.246;7.372;2023-05-18T06:19:52;9.50;;;4.20;;
47429;SDS011;33181;49.246;7.372;2023-05-18T06:22:18;9.03;;;4.20;;
47429;SDS011;33181;49.246;7.372;2023-05-18T06:24:44;7.30;;;3.90;;
47429;SDS011;33181;49.246;7.372;2023-05-18T06:27:11;10.30;;;4.23;;
47429;SDS011;33181;49.246;7.372;2023-05-18T06:29:37;8.83;;;4.00;;
47429;SDS011;33181;49.246;7.372;2023-05-18T06:32:02;10.20;;;4.70;;
47429;SDS011;33181;49.246;7.372;2023-05-18T06:34:29;7.13;;;3.73;;
47429;SDS011;33181;49.246;7.372;2023-05-18T06:36:54;15.13;;;4.80;;
47429;SDS011;33181;49.246;7.372;2023-05-18T06:39:20;8.63;;;3.97;;
47429;SDS011;33181;49.246;7.372;2023-05-18T06:41:46;8.23;;;3.70;;
47429;SDS011;33181;49.246;7.372;2023-05-18T06:44:12;12.63;;;4.50;;
47429;SDS011;33181;49.246;7.372;2023-05-18T06:46:38;10.87;;;4.23;;
47429;SDS011;33181;49.246;7.372;2023-05-18T06:49:05;8.67;;;4.30;;
47429;SDS011;33181;49.246;7.372;2023-05-18T06:51:31;6.93;;;3.93;;
47429;SDS011;33181;49.246;7.372;2023-05-18T06:53:57;8.17;;;4.33;;
47429;SDS011;33181;49.246;7.372;2023-05-18T06:56:22;6.93;;;3.60;;
47429;SDS011;33181;49.246;7.372;2023-05-18T06:58:48;8.83;;;4.00;;
47429;SDS011;33181;49.246;7.372;2023-05-18T07:01:14;8.80;;;3.83;;
47429;SDS011;33181;49.246;7.372;2023-05-18T07:03:43;14.67;;;4.17;;
47429;SDS011;33181;49.246;7.372;2023-05-18T07:06:09;15.60;;;4.60;;
47429;SDS011;33181;49.246;7.372;2023-05-18T07:08:35;9.27;;;4.27;;
47429;SDS011;33181;49.246;7.372;2023-05-18T07:11:02;9.30;;;3.93;;
47429;SDS011;33181;49.246;7.372;2023-05-18T07:13:29;13.03;;;4.37;;
47429;SDS011;33181;49.246;7.372;2023-05-18T07:15:55;7.00;;;3.37;;
47429;SDS011;33181;49.246;7.372;2023-05-18T07:18:24;6.23;;;3.40;;
47429;SDS011;33181;49.246;7.372;2023-05-18T07:20:50;6.60;;;3.57;;
47429;SDS011;33181;49.246;7.372;2023-05-18T07:23:16;8.33;;;3.70;;
47429;SDS011;33181;49.246;7.372;2023-05-18T07:25:42;7.23;;;3.70;;
47429;SDS011;33181;49.246;7.372;2023-05-18T07:28:07;9.73;;;3.93;;
47429;SDS011;33181;49.246;7.372;2023-05-18T07:30:33;8.87;;;3.93;;
47429;SDS011;33181;49.246;7.372;2023-05-18T07:32:59;9.80;;;4.43;;
47429;SDS011;33181;49.246;7.372;2023-05-18T07:35:25;9.20;;;3.63;;
47429;SDS011;33181;49.246;7.372;2023-05-18T07:37:51;7.10;;;3.63;;
47429;SDS011;33181;49.246;7.372;2023-05-18T07:40:18;12.13;;;3.83;;
47429;SDS011;33181;49.246;7.372;2023-05-18T07:42:44;11.07;;;4.03;;
47429;SDS011;33181;49.246;7.372;2023-05-18T07:45:10;6.50;;;3.70;;
47429;SDS011;33181;49.246;7.372;2023-05-18T07:47:37;7.23;;;3.73;;
47429;SDS011;33181;49.246;7.372;2023-05-18T07:50:04;8.50;;;3.70;;
47429;SDS011;33181;49.246;7.372;2023-05-18T07:52:31;7.83;;;3.80;;
47429;SDS011;33181;49.246;7.372;2023-05-18T07:54:57;7.80;;;3.67;;
47429;SDS011;33181;49.246;7.372;2023-05-18T07:57:23;9.90;;;3.70;;
47429;SDS011;33181;49.246;7.372;2023-05-18T07:59:49;8.30;;;3.40;;
47429;SDS011;33181;49.246;7.372;2023-05-18T08:02:16;5.80;;;3.67;;
47429;SDS011;33181;49.246;7.372;2023-05-18T08:04:43;7.53;;;3.43;;
47429;SDS011;33181;49.246;7.372;2023-05-18T08:07:10;10.23;;;4.30;;
47429;SDS011;33181;49.246;7.372;2023-05-18T08:09:37;8.30;;;3.43;;
47429;SDS011;33181;49.246;7.372;2023-05-18T08:12:04;7.63;;;4.37;;
47429;SDS011;33181;49.246;7.372;2023-05-18T08:14:32;10.00;;;3.90;;
47429;SDS011;33181;49.246;7.372;2023-05-18T08:16:58;10.50;;;3.73;;
47429;SDS011;33181;49.246;7.372;2023-05-18T08:19:24;5.93;;;3.60;;
47429;SDS011;33181;49.246;7.372;2023-05-18T08:21:50;7.30;;;3.47;;
47429;SDS011;33181;49.246;7.372;2023-05-18T08:24:16;18.90;;;3.67;;
47429;SDS011;33181;49.246;7.372;2023-05-18T08:26:43;7.60;;;3.37;;
47429;SDS011;33181;49.246;7.372;2023-05-18T08:29:09;8.80;;;3.47;;
47429;SDS011;33181;49.246;7.372;2023-05-18T08:31:36;8.63;;;3.43;;
47429;SDS011;33181;49.246;7.372;2023-05-18T08:34:06;8.17;;;3.70;;
47429;SDS011;33181;49.246;7.372;2023-05-18T08:36:33;6.90;;;4.07;;
47429;SDS011;33181;49.246;7.372;2023-05-18T08:39:00;6.97;;;3.50;;
47429;SDS011;33181;49.246;7.372;2023-05-18T08:41:35;9.10;;;3.47;;
47429;SDS011;33181;49.246;7.372;2023-05-18T08:44:29;9.13;;;3.87;;
47429;SDS011;33181;49.246;7.372;2023-05-18T08:47:19;8.70;;;3.97;;
47429;SDS011;33181;49.246;7.372;2023-05-18T08:49:50;8.00;;;3.27;;
47429;SDS011;33181;49.246;7.372;2023-05-18T08:52:22;6.37;;;3.70;;
47429;SDS011;33181;49.246;7.372;2023-05-18T08:54:53;6.27;;;3.70;;
47429;SDS011;33181;49.246;7.372;2023-05-18T08:57:21;9.13;;;3.60;;
47429;SDS011;33181;49.246;7.372;2023-05-18T08:59:53;7.27;;;3.50;;
47429;SDS011;33181;49.246;7.372;2023-05-18T09:02:20;9.30;;;4.10;;
47429;SDS011;33181;49.246;7.372;2023-05-18T09:04:46;10.60;;;3.53;;
47429;SDS011;33181;49.246;7.372;2023-05-18T09:07:13;7.03;;;3.70;;
47429;SDS011;33181;49.246;7.372;2023-05-18T09:09:40;7.40;;;3.40;;
47429;SDS011;33181;49.246;7.372;2023-05-18T09:12:10;6.60;;;3.50;;
47429;SDS011;33181;49.246;7.372;2023-05-18T09:14:37;7.17;;;3.67;;
47429;SDS011;33181;49.246;7.372;2023-05-18T09:17:09;7.40;;;3.37;;
47429;SDS011;33181;49.246;7.372;2023-05-18T09:19:36;8.30;;;3.90;;
47429;SDS011;33181;49.246;7.372;2023-05-18T09:22:05;5.23;;;3.33;;
47429;SDS011;33181;49.246;7.372;2023-05-18T09:24:32;10.23;;;3.87;;
47429;SDS011;33181;49.246;7.372;2023-05-18T09:26:58;10.07;;;3.50;;
47429;SDS011;33181;49.246;7.372;2023-05-18T09:29:25;6.30;;;3.30;;
47429;SDS011;33181;49.246;7.372;2023-05-18T09:31:51;8.90;;;3.60;;
47429;SDS011;33181;49.246;7.372;2023-05-18T09:34:18;8.50;;;3.67;;
47429;SDS011;33181;49.246;7.372;2023-05-18T09:36:48;9.80;;;3.70;;
47429;SDS011;33181;49.246;7.372;2023-05-18T09:39:17;10.03;;;3.70;;
47429;SDS011;33181;49.246;7.372;2023-05-18T09:41:43;6.33;;;3.57;;
47429;SDS011;33181;49.246;7.372;2023-05-18T09:44:09;11.07;;;3.37;;
47429;SDS011;33181;49.246;7.372;2023-05-18T09:46:37;7.30;;;3.47;;
47429;SDS011;33181;49.246;7.372;2023-05-18T09:49:04;10.20;;;3.73;;
47429;SDS011;33181;49.246;7.372;2023-05-18T09:51:34;7.80;;;3.93;;
47429;SDS011;33181;49.246;7.372;2023-05-18T09:54:05;10.17;;;3.70;;
47429;SDS011;33181;49.246;7.372;2023-05-18T09:56:34;9.00;;;3.20;;
47429;SDS011;33181;49.246;7.372;2023-05-18T09:59:09;8.07;;;3.93;;
47429;SDS011;33181;49.246;7.372;2023-05-18T10:01:36;8.63;;;3.90;;
47429;SDS011;33181;49.246;7.372;2023-05-18T10:04:19;7.83;;;3.87;;
47429;SDS011;33181;49.246;7.372;2023-05-18T10:06:48;10.03;;;3.50;;
47429;SDS011;33181;49.246;7.372;2023-05-18T10:09:15;8.67;;;3.70;;
47429;SDS011;33181;49.246;7.372;2023-05-18T10:11:42;8.23;;;3.60;;
47429;SDS011;33181;49.246;7.372;2023-05-18T10:14:11;8.27;;;3.40;;
47429;SDS011;33181;49.246;7.372;2023-05-18T10:16:39;6.73;;;4.20;;
47429;SDS011;33181;49.246;7.372;2023-05-18T10:19:06;7.63;;;4.17;;
47429;SDS011;33181;49.246;7.372;2023-05-18T10:21:35;8.77;;;4.10;;
47429;SDS011;33181;49.246;7.372;2023-05-18T10:24:02;10.23;;;4.30;;
47429;SDS011;33181;49.246;7.372;2023-05-18T10:26:32;9.57;;;3.73;;
47429;SDS011;33181;49.246;7.372;2023-05-18T10:29:01;8.53;;;3.70;;
47429;SDS011;33181;49.246;7.372;2023-05-18T10:31:30;6.20;;;3.80;;
47429;SDS011;33181;49.246;7.372;2023-05-18T10:33:59;8.53;;;4.07;;
47429;SDS011;33181;49.246;7.372;2023-05-18T10:36:25;8.40;;;3.40;;
47429;SDS011;33181;49.246;7.372;2023-05-18T10:38:54;10.60;;;3.87;;
47429;SDS011;33181;49.246;7.372;2023-05-18T10:41:23;6.77;;;4.10;;
47429;SDS011;33181;49.246;7.372;2023-05-18T10:43:51;9.53;;;4.20;;
47429;SDS011;33181;49.246;7.372;2023-05-18T10:46:20;8.40;;;4.27;;
47429;SDS011;33181;49.246;7.372;2023-05-18T10:48:50;10.40;;;4.23;;
47429;SDS011;33181;49.246;7.372;2023-05-18T10:51:18;10.50;;;4.00;;
47429;SDS011;33181;49.246;7.372;2023-05-18T10:53:45;9.30;;;4.20;;
47429;SDS011;33181;49.246;7.372;2023-05-18T10:56:14;8.17;;;4.00;;
47429;SDS011;33181;49.246;7.372;2023-05-18T10:58:40;12.00;;;4.80;;
47429;SDS011;33181;49.246;7.372;2023-05-18T11:01:09;10.47;;;4.37;;
47429;SDS011;33181;49.246;7.372;2023-05-18T11:03:37;13.67;;;4.20;;
47429;SDS011;33181;49.246;7.372;2023-05-18T11:06:06;8.67;;;4.57;;
47429;SDS011;33181;49.246;7.372;2023-05-18T11:08:41;6.90;;;4.23;;
47429;SDS011;33181;49.246;7.372;2023-05-18T11:11:10;10.27;;;4.40;;
47429;SDS011;33181;49.246;7.372;2023-05-18T11:13:37;9.00;;;4.80;;
47429;SDS011;33181;49.246;7.372;2023-05-18T11:16:10;10.37;;;4.67;;
47429;SDS011;33181;49.246;7.372;2023-05-18T11:21:20;9.03;;;4.70;;
47429;SDS011;33181;49.246;7.372;2023-05-18T11:24:30;7.90;;;4.20;;
47429;SDS011;33181;49.246;7.372;2023-05-18T11:27:00;8.93;;;4.53;;
47429;SDS011;33181;49.246;7.372;2023-05-18T11:29:42;6.57;;;4.40;;
47429;SDS011;33181;49.246;7.372;2023-05-18T11:32:25;10.07;;;4.60;;
47429;SDS011;33181;49.246;7.372;2023-05-18T11:34:54;9.30;;;5.00;;
47429;SDS011;33181;49.246;7.372;2023-05-18T11:40:09;10.13;;;4.30;;
47429;SDS011;33181;49.246;7.372;2023-05-18T11:42:37;8.57;;;4.40;;
47429;SDS011;33181;49.246;7.372;2023-05-18T11:45:10;7.17;;;4.27;;
47429;SDS011;33181;49.246;7.372;2023-05-18T11:47:37;9.90;;;4.17;;
47429;SDS011;33181;49.246;7.372;2023-05-18T11:50:10;10.93;;;4.90;;
47429;SDS011;33181;49.246;7.372;2023-05-18T11:52:46;10.20;;;4.40;;
47429;SDS011;33181;49.246;7.372;2023-05-18T11:55:17;15.30;;;4.47;;
47429;SDS011;33181;49.246;7.372;2023-05-18T11:57:46;9.60;;;4.47;;
47429;SDS011;33181;49.246;7.372;2023-05-18T12:00:19;9.50;;;4.47;;
47429;SDS011;33181;49.246;7.372;2023-05-18T12:02:47;9.37;;;4.30;;
47429;SDS011;33181;49.246;7.372;2023-05-18T12:05:16;8.23;;;4.13;;
47429;SDS011;33181;49.246;7.372;2023-05-18T12:07:43;11.70;;;4.63;;
47429;SDS011;33181;49.246;7.372;2023-05-18T12:10:16;10.07;;;4.33;;
47429;SDS011;33181;49.246;7.372;2023-05-18T12:12:46;10.47;;;5.00;;
47429;SDS011;33181;49.246;7.372;2023-05-18T12:15:15;11.20;;;4.30;;
47429;SDS011;33181;49.246;7.372;2023-05-18T12:17:47;9.60;;;4.47;;
47429;SDS011;33181;49.246;7.372;2023-05-18T12:20:15;7.20;;;4.00;;
47429;SDS011;33181;49.246;7.372;2023-05-18T12:22:49;6.73;;;4.50;;
47429;SDS011;33181;49.246;7.372;2023-05-18T12:25:21;9.97;;;4.40;;
47429;SDS011;33181;49.246;7.372;2023-05-18T12:27:48;8.00;;;4.37;;
47429;SDS011;33181;49.246;7.372;2023-05-18T12:30:20;12.70;;;4.80;;
47429;SDS011;33181;49.246;7.372;2023-05-18T12:32:58;8.60;;;4.50;;
47429;SDS011;33181;49.246;7.372;2023-05-18T12:35:27;9.37;;;4.50;;
47429;SDS011;33181;49.246;7.372;2023-05-18T12:37:54;7.73;;;4.20;;
47429;SDS011;33181;49.246;7.372;2023-05-18T12:40:24;10.40;;;4.50;;
47429;SDS011;33181;49.246;7.372;2023-05-18T12:42:51;8.00;;;4.57;;
47429;SDS011;33181;49.246;7.372;2023-05-18T12:45:20;9.40;;;4.50;;
47429;SDS011;33181;49.246;7.372;2023-05-18T12:47:48;11.53;;;3.90;;
47429;SDS011;33181;49.246;7.372;2023-05-18T12:50:19;9.50;;;4.20;;
47429;SDS011;33181;49.246;7.372;2023-05-18T12:52:47;5.57;;;4.43;;
47429;SDS011;33181;49.246;7.372;2023-05-18T12:55:17;9.10;;;4.27;;
47429;SDS011;33181;49.246;7.372;2023-05-18T12:58:05;6.57;;;4.30;;
47429;SDS011;33181;49.246;7.372;2023-05-18T13:00:45;8.10;;;4.33;;
47429;SDS011;33181;49.246;7.372;2023-05-18T13:03:15;5.53;;;3.87;;
47429;SDS011;33181;49.246;7.372;2023-05-18T13:05:42;11.03;;;4.10;;
47429;SDS011;33181;49.246;7.372;2023-05-18T13:08:18;8.53;;;4.40;;
47429;SDS011;33181;49.246;7.372;2023-05-18T13:10:47;6.70;;;4.17;;
47429;SDS011;33181;49.246;7.372;2023-05-18T13:13:14;9.00;;;3.83;;
47429;SDS011;33181;49.246;7.372;2023-05-18T13:15:40;8.30;;;4.00;;
47429;SDS011;33181;49.246;7.372;2023-05-18T13:18:08;7.20;;;3.93;;
47429;SDS011;33181;49.246;7.372;2023-05-18T13:20:43;7.73;;;4.07;;
47429;SDS011;33181;49.246;7.372;2023-05-18T13:23:16;14.80;;;4.37;;
47429;SDS011;33181;49.246;7.372;2023-05-18T13:25:44;9.20;;;4.37;;
47429;SDS011;33181;49.246;7.372;2023-05-18T13:28:11;7.47;;;4.40;;
47429;SDS011;33181;49.246;7.372;2023-05-18T13:30:38;9.23;;;4.27;;
47429;SDS011;33181;49.246;7.372;2023-05-18T13:33:08;9.10;;;3.90;;
47429;SDS011;33181;49.246;7.372;2023-05-18T13:35:35;7.33;;;3.80;;
47429;SDS011;33181;49.246;7.372;2023-05-18T13:38:02;8.47;;;4.20;;
47429;SDS011;33181;49.246;7.372;2023-05-18T13:40:28;5.93;;;3.33;;
47429;SDS011;33181;49.246;7.372;2023-05-18T13:42:54;5.80;;;3.90;;
47429;SDS011;33181;49.246;7.372;2023-05-18T13:45:21;8.20;;;3.73;;
47429;SDS011;33181;49.246;7.372;2023-05-18T13:47:48;8.33;;;4.00;;
47429;SDS011;33181;49.246;7.372;2023-05-18T13:50:17;5.23;;;3.90;;
47429;SDS011;33181;49.246;7.372;2023-05-18T13:52:45;9.47;;;3.77;;
47429;SDS011;33181;49.246;7.372;2023-05-18T13:55:12;6.70;;;3.60;;
47429;SDS011;33181;49.246;7.372;2023-05-18T13:57:39;7.50;;;3.80;;
47429;SDS011;33181;49.246;7.372;2023-05-18T14:00:05;7.33;;;3.90;;
47429;SDS011;33181;49.246;7.372;2023-05-18T14:02:37;8.70;;;3.80;;
47429;SDS011;33181;49.246;7.372;2023-05-18T14:05:10;8.27;;;4.37;;
47429;SDS011;33181;49.246;7.372;2023-05-18T14:07:37;7.33;;;3.77;;
47429;SDS011;33181;49.246;7.372;2023-05-18T14:10:08;9.70;;;3.60;;
47429;SDS011;33181;49.246;7.372;2023-05-18T14:12:35;6.93;;;4.03;;
47429;SDS011;33181;49.246;7.372;2023-05-18T14:15:02;7.00;;;3.60;;
47429;SDS011;33181;49.246;7.372;2023-05-18T14:17:29;10.23;;;4.30;;
47429;SDS011;33181;49.246;7.372;2023-05-18T14:19:56;8.33;;;4.10;;
47429;SDS011;33181;49.246;7.372;2023-05-18T14:22:22;6.57;;;3.50;;
47429;SDS011;33181;49.246;7.372;2023-05-18T14:24:50;7.50;;;4.17;;
47429;SDS011;33181;49.246;7.372;2023-05-18T14:27:16;8.47;;;3.90;;
47429;SDS011;33181;49.246;7.372;2023-05-18T14:29:44;9.40;;;3.90;;
47429;SDS011;33181;49.246;7.372;2023-05-18T14:32:10;9.57;;;4.30;;
47429;SDS011;33181;49.246;7.372;2023-05-18T14:34:36;5.03;;;3.40;;
47429;SDS011;33181;49.246;7.372;2023-05-18T14:37:02;9.13;;;4.20;;
47429;SDS011;33181;49.246;7.372;2023-05-18T14:39:28;9.17;;;3.80;;
47429;SDS011;33181;49.246;7.372;2023-05-18T14:41:54;8.80;;;4.00;;
47429;SDS011;33181;49.246;7.372;2023-05-18T14:44:20;8.03;;;4.03;;
47429;SDS011;33181;49.246;7.372;2023-05-18T14:46:45;10.10;;;3.90;;
47429;SDS011;33181;49.246;7.372;2023-05-18T14:49:11;8.23;;;4.40;;
47429;SDS011;33181;49.246;7.372;2023-05-18T14:51:37;5.60;;;3.73;;
47429;SDS011;33181;49.246;7.372;2023-05-18T14:54:03;9.47;;;4.40;;
47429;SDS011;33181;49.246;7.372;2023-05-18T14:56:29;9.30;;;4.20;;
47429;SDS011;33181;49.246;7.372;2023-05-18T14:58:55;8.57;;;4.20;;
47429;SDS011;33181;49.246;7.372;2023-05-18T15:01:21;6.90;;;3.70;;
47429;SDS011;33181;49.246;7.372;2023-05-18T15:03:47;8.83;;;3.47;;
47429;SDS011;33181;49.246;7.372;2023-05-18T15:06:13;8.10;;;3.67;;
47429;SDS011;33181;49.246;7.372;2023-05-18T15:08:38;6.53;;;3.90;;
47429;SDS011;33181;49.246;7.372;2023-05-18T15:11:04;5.90;;;3.33;;
47429;SDS011;33181;49.246;7.372;2023-05-18T15:13:30;9.50;;;3.50;;
47429;SDS011;33181;49.246;7.372;2023-05-18T15:15:56;7.90;;;3.70;;